createdAt,value
2023-02-24T00:05:15.505Z,98249.34
2023-02-24T00:07:41.640Z,98251.78
2023-02-24T00:10:07.826Z,98241.34
2023-02-24T00:12:33.943Z,98245.84
2023-02-24T00:15:00.184Z,98238.44
2023-02-24T00:17:26.402Z,98242.16
2023-02-24T00:19:52.553Z,98234.13
2023-02-24T00:22:18.671Z,98229.00
2023-02-24T00:24:44.787Z,98238.66
2023-02-24T00:27:10.910Z,98227.13
2023-02-24T00:29:37.099Z,98227.97
2023-02-24T00:32:03.347Z,98234.13
2023-02-24T00:34:29.559Z,98222.41
2023-02-24T00:36:55.721Z,98226.94
2023-02-24T00:39:21.842Z,98217.31
2023-02-24T00:41:48.086Z,98219.75
2023-02-24T00:44:14.272Z,98215.44
2023-02-24T00:46:40.446Z,98218.13
2023-02-24T00:49:06.645Z,98211.72
2023-02-24T00:51:32.759Z,98208.25
2023-02-24T00:53:58.933Z,98201.88
2023-02-24T00:56:25.089Z,98197.56
2023-02-24T00:58:51.230Z,98193.03
2023-02-24T01:01:17.462Z,98199.19
2023-02-24T01:03:43.693Z,98185.03
2023-02-24T01:06:09.852Z,98183.59
2023-02-24T01:08:35.991Z,98187.06
2023-02-24T01:11:02.130Z,98178.69
2023-02-24T01:13:28.281Z,98180.50
2023-02-24T01:15:54.426Z,98175.38
2023-02-24T01:18:20.630Z,98174.16
2023-02-24T01:20:46.811Z,98174.16
2023-02-24T01:23:12.984Z,98167.16
2023-02-24T01:25:39.129Z,98168.00
2023-02-24T01:28:05.331Z,98166.13
2023-02-24T01:30:31.558Z,98164.47
2023-02-24T01:32:57.856Z,98163.47
2023-02-24T01:35:24.156Z,98159.13
2023-02-24T01:37:50.284Z,98156.69
2023-02-24T01:40:16.499Z,98159.38
2023-02-24T01:42:42.713Z,98161.00
2023-02-24T01:45:08.838Z,98160.78
2023-02-24T01:47:35.049Z,98150.31
2023-02-24T01:50:01.180Z,98150.13
2023-02-24T01:52:27.272Z,98153.59
2023-02-24T01:54:53.473Z,98150.13
2023-02-24T01:57:19.589Z,98144.78
2023-02-24T01:59:45.795Z,98149.06
2023-02-24T02:02:11.992Z,98143.13
2023-02-24T02:04:38.223Z,98138.00
2023-02-24T02:07:04.424Z,98128.13
2023-02-24T02:09:30.582Z,98127.94
2023-02-24T02:11:56.730Z,98127.09
2023-02-24T02:14:22.860Z,98119.31
2023-02-24T02:16:49.029Z,98126.06
2023-02-24T02:19:15.178Z,98117.25
2023-02-24T02:21:41.284Z,98115.59
2023-02-24T02:24:07.484Z,98111.28
2023-02-24T02:26:33.606Z,98112.91
2023-02-24T02:28:59.763Z,98108.19
2023-02-24T02:31:26.348Z,98109.25
2023-02-24T02:33:52.649Z,98096.09
2023-02-24T02:36:18.785Z,98088.88
2023-02-24T02:38:44.939Z,98094.66
2023-02-24T02:41:11.042Z,98094.47
2023-02-24T02:43:37.182Z,98084.59
2023-02-24T02:46:03.402Z,98073.91
2023-02-24T02:48:29.541Z,98067.75
2023-02-24T02:50:55.647Z,98064.03
2023-02-24T02:53:21.851Z,98052.53
2023-02-24T02:55:48.027Z,98054.16
2023-02-24T02:58:14.167Z,98048.81
2023-02-24T03:00:40.294Z,98054.16
2023-02-24T03:03:06.429Z,98043.50
2023-02-24T03:05:32.557Z,98040.00
2023-02-24T03:07:58.719Z,98040.19
2023-02-24T03:10:24.883Z,98040.81
2023-02-24T03:12:50.988Z,98029.31
2023-02-24T03:15:17.288Z,98037.94
2023-02-24T03:17:43.422Z,98030.13
2023-02-24T03:20:09.562Z,98029.31
2023-02-24T03:22:35.676Z,98021.31
2023-02-24T03:25:01.787Z,98026.84
2023-02-24T03:27:27.908Z,98015.97
2023-02-24T03:29:54.076Z,98010.63
2023-02-24T03:32:20.382Z,98009.00
2023-02-24T03:34:46.624Z,98009.81
2023-02-24T03:37:12.766Z,98011.69
2023-02-24T03:39:38.940Z,98006.34
2023-02-24T03:42:05.107Z,98009.81
2023-02-24T03:44:31.255Z,98003.66
2023-02-24T03:46:57.375Z,98007.16
2023-02-24T03:49:23.496Z,97996.47
2023-02-24T03:51:49.611Z,97993.78
2023-02-24T03:54:15.726Z,97999.13
2023-02-24T03:56:41.860Z,98000.56
2023-02-24T03:59:08.095Z,97998.94
2023-02-24T04:01:34.216Z,97999.97
2023-02-24T04:04:00.352Z,98000.78
2023-02-24T04:06:26.526Z,97994.84
2023-02-24T04:08:52.625Z,97992.56
2023-02-24T04:11:19.306Z,98002.00
2023-02-24T04:13:45.719Z,97996.66
2023-02-24T04:16:11.888Z,97987.63
2023-02-24T04:18:39.315Z,97987.84
2023-02-24T04:21:06.952Z,97991.31
2023-02-24T04:23:33.108Z,97987.84
2023-02-24T04:25:59.346Z,97993.19
2023-02-24T04:28:25.527Z,97993.19
2023-02-24T04:30:51.714Z,97985.97
2023-02-24T04:33:17.910Z,97977.97
2023-02-24T04:35:44.033Z,97982.50
2023-02-24T04:38:10.153Z,97974.50
2023-02-24T04:40:36.276Z,97973.44
2023-02-24T04:43:02.445Z,97970.78
2023-02-24T04:45:28.609Z,97972.44
2023-02-24T04:47:54.806Z,97975.31
2023-02-24T04:50:20.933Z,97970.78
2023-02-24T04:52:47.037Z,97964.63
2023-02-24T04:55:13.233Z,97966.28
2023-02-24T04:57:39.399Z,97965.44
2023-02-24T05:00:05.495Z,97958.47
2023-02-24T05:02:31.644Z,97958.47
2023-02-24T05:04:57.937Z,97962.16
2023-02-24T05:07:24.070Z,97956.00
2023-02-24T05:09:50.171Z,97952.31
2023-02-24T05:12:16.295Z,97954.13
2023-02-24T05:14:48.228Z,97947.19
2023-02-24T05:17:14.626Z,97945.31
2023-02-24T05:19:41.007Z,97936.50
2023-02-24T05:22:07.295Z,97937.31
2023-02-24T05:24:33.489Z,97936.50
2023-02-24T05:26:59.677Z,97928.47
2023-02-24T05:29:25.808Z,97924.19
2023-02-24T05:31:52.091Z,97923.94
2023-02-24T05:34:18.288Z,97918.00
2023-02-24T05:36:44.496Z,97921.53
2023-02-24T05:39:10.621Z,97912.47
2023-02-24T05:41:36.840Z,97910.84
2023-02-24T05:44:03.034Z,97906.50
2023-02-24T05:46:29.273Z,97908.16
2023-02-24T05:48:55.501Z,97903.03
2023-02-24T05:51:22.055Z,97904.66
2023-02-24T05:53:48.369Z,97903.03
2023-02-24T05:56:14.522Z,97897.69
2023-02-24T05:58:40.635Z,97894.22
2023-02-24T06:01:06.797Z,97894.22
2023-02-24T06:03:33.009Z,97894.22
2023-02-24T06:05:59.282Z,97889.69
2023-02-24T06:08:25.526Z,97887.22
2023-02-24T06:10:51.703Z,97873.06
2023-02-24T06:13:17.844Z,97882.91
2023-02-24T06:15:43.989Z,97878.63
2023-02-24T06:18:10.132Z,97874.09
2023-02-24T06:20:36.282Z,97868.75
2023-02-24T06:23:02.489Z,97874.09
2023-02-24T06:25:29.135Z,97867.94
2023-02-24T06:27:55.306Z,97865.28
2023-02-24T06:30:21.605Z,97859.94
2023-02-24T06:32:47.930Z,97864.44
2023-02-24T06:35:14.152Z,97862.00
2023-02-24T06:37:40.295Z,97868.97
2023-02-24T06:40:06.555Z,97867.34
2023-02-24T06:42:32.671Z,97851.31
2023-02-24T06:44:58.780Z,97856.66
2023-02-24T06:47:24.932Z,97857.47
2023-02-24T06:49:51.039Z,97852.94
2023-02-24T06:52:17.142Z,97851.31
2023-02-24T06:54:43.262Z,97847.00
2023-02-24T06:57:09.391Z,97847.81
2023-02-24T06:59:35.538Z,97848.03
2023-02-24T07:02:01.859Z,97839.22
2023-02-24T07:04:29.028Z,97848.84
2023-02-24T07:06:55.279Z,97837.38
2023-02-24T07:09:21.419Z,97841.88
2023-02-24T07:11:47.530Z,97837.56
2023-02-24T07:14:13.700Z,97837.56
2023-02-24T07:16:39.873Z,97840.22
2023-02-24T07:19:06.109Z,97835.94
2023-02-24T07:21:32.288Z,97833.88
2023-02-24T07:23:59.383Z,97827.94
2023-02-24T07:26:25.723Z,97823.41
2023-02-24T07:28:51.859Z,97818.88
2023-02-24T07:31:18.178Z,97816.44
2023-02-24T07:33:44.381Z,97812.72
2023-02-24T07:36:10.586Z,97818.06
2023-02-24T07:38:36.792Z,97822.59
2023-02-24T07:41:02.974Z,97805.75
2023-02-24T07:43:29.136Z,97812.13
2023-02-24T07:45:55.288Z,97802.25
2023-02-24T07:48:21.442Z,97797.97
2023-02-24T07:50:47.899Z,97793.63
2023-02-24T07:53:14.043Z,97790.97
2023-02-24T07:55:40.143Z,97789.34
2023-02-24T07:58:06.281Z,97781.34
2023-02-24T08:00:32.458Z,97774.13
2023-02-24T08:02:58.711Z,97769.03
2023-02-24T08:05:24.903Z,97769.03
2023-02-24T08:07:51.045Z,97769.03
2023-02-24T08:10:17.152Z,97755.91
2023-02-24T08:12:43.245Z,97749.75
2023-02-24T08:15:09.408Z,97754.03
2023-02-24T08:17:35.551Z,97746.28
2023-02-24T08:20:02.247Z,97745.44
2023-02-24T08:22:28.522Z,97746.28
2023-02-24T08:24:54.681Z,97733.94
2023-02-24T08:27:20.779Z,97739.28
2023-02-24T08:29:47.072Z,97727.59
2023-02-24T08:32:13.311Z,97735.78
2023-02-24T08:34:39.490Z,97726.97
2023-02-24T08:37:05.631Z,97715.47
2023-02-24T08:39:31.737Z,97713.63
2023-02-24T08:41:57.860Z,97716.31
2023-02-24T08:44:23.978Z,97714.66
2023-02-24T08:46:50.145Z,97708.28
2023-02-24T08:49:16.307Z,97710.13
2023-02-24T08:51:42.433Z,97698.63
2023-02-24T08:54:08.535Z,97702.97
2023-02-24T08:56:34.738Z,97702.34
2023-02-24T08:59:02.562Z,97702.34
2023-02-24T09:01:28.680Z,97693.53
2023-02-24T09:03:54.772Z,97698.88
2023-02-24T09:06:20.889Z,97685.53
2023-02-24T09:08:47.004Z,97692.69
2023-02-24T09:11:13.126Z,97689.44
2023-02-24T09:13:39.257Z,97680.59
2023-02-24T09:16:05.509Z,97685.94
2023-02-24T09:18:31.846Z,97675.25
2023-02-24T09:20:57.971Z,97674.44
2023-02-24T09:23:24.098Z,97673.44
2023-02-24T09:25:50.218Z,97670.78
2023-02-24T09:28:16.389Z,97666.44
2023-02-24T09:30:42.629Z,97668.31
2023-02-24T09:33:08.890Z,97654.34
2023-02-24T09:35:35.232Z,97663.41
2023-02-24T09:38:01.354Z,97657.84
2023-02-24T09:40:27.464Z,97653.56
2023-02-24T09:42:53.605Z,97650.88
2023-02-24T09:45:19.714Z,97647.41
2023-02-24T09:47:45.860Z,97650.06
2023-02-24T09:50:11.988Z,97636.72
2023-02-24T09:52:38.082Z,97635.06
2023-02-24T09:55:04.236Z,97635.31
2023-02-24T09:57:30.365Z,97631.00
2023-02-24T09:59:56.521Z,97635.53
2023-02-24T10:02:22.658Z,97632.84
2023-02-24T10:04:48.831Z,97617.88
2023-02-24T10:07:14.995Z,97624.03
2023-02-24T10:09:41.138Z,97619.72
2023-02-24T10:12:07.308Z,97621.56
2023-02-24T10:14:42.919Z,97609.28
2023-02-24T10:17:09.754Z,97600.44
2023-02-24T10:19:35.875Z,97596.97
2023-02-24T10:22:01.997Z,97590.81
2023-02-24T10:24:28.158Z,97588.16
2023-02-24T10:27:07.919Z,97588.94
2023-02-24T10:29:34.684Z,97583.63
2023-02-24T10:32:00.978Z,97586.28
2023-02-24T10:34:27.339Z,97582.81
2023-02-24T10:36:54.014Z,97580.13
2023-02-24T10:39:20.095Z,97577.47
2023-02-24T10:41:46.239Z,97569.47
2023-02-24T10:44:12.381Z,97567.84
2023-02-24T10:46:42.020Z,97568.88
2023-02-24T10:49:08.845Z,97572.59
2023-02-24T10:51:34.963Z,97565.38
2023-02-24T10:54:01.110Z,97555.53
2023-02-24T10:56:27.243Z,97548.56
2023-02-24T10:58:53.378Z,97545.91
2023-02-24T11:01:19.716Z,97543.22
2023-02-24T11:03:45.930Z,97542.44
2023-02-24T11:06:12.063Z,97538.91
2023-02-24T11:08:38.170Z,97537.09
2023-02-24T11:11:04.304Z,97530.09
2023-02-24T11:13:30.422Z,97529.09
2023-02-24T11:15:56.604Z,97513.28
2023-02-24T11:18:22.745Z,97507.13
2023-02-24T11:20:50.046Z,97508.75
2023-02-24T11:23:16.313Z,97501.56
2023-02-24T11:25:42.433Z,97505.28
2023-02-24T11:28:08.564Z,97490.28
2023-02-24T11:30:34.690Z,97495.63
2023-02-24T11:33:00.947Z,97490.28
2023-02-24T11:35:27.096Z,97486.22
2023-02-24T11:37:53.234Z,97473.72
2023-02-24T11:40:19.339Z,97483.34
2023-02-24T11:42:45.457Z,97470.81
2023-02-24T11:45:11.681Z,97465.47
2023-02-24T11:47:37.823Z,97457.47
2023-02-24T11:50:05.262Z,97456.66
2023-02-24T11:52:31.435Z,97449.47
2023-02-24T11:54:57.533Z,97446.00
2023-02-24T11:57:23.692Z,97426.72
2023-02-24T11:59:49.842Z,97428.38
2023-02-24T12:02:15.960Z,97418.72
2023-02-24T12:04:42.096Z,97414.19
2023-02-24T12:07:08.187Z,97416.03
2023-02-24T12:09:34.312Z,97410.72
2023-02-24T12:12:00.469Z,97411.75
2023-02-24T12:14:26.590Z,97409.09
2023-02-24T12:16:52.747Z,97409.31
2023-02-24T12:19:18.886Z,97402.09
2023-02-24T12:21:44.985Z,97403.97
2023-02-24T12:24:11.107Z,97402.09
2023-02-24T12:26:37.242Z,97392.50
2023-02-24T12:29:03.357Z,97389.81
2023-02-24T12:31:29.623Z,97392.50
2023-02-24T12:33:55.834Z,97382.03
2023-02-24T12:36:21.946Z,97387.38
2023-02-24T12:38:48.149Z,97383.09
2023-02-24T12:41:14.511Z,97382.28
2023-02-24T12:43:40.640Z,97379.38
2023-02-24T12:46:06.819Z,97367.06
2023-02-24T12:48:32.987Z,97361.75
2023-02-24T12:50:59.092Z,97356.63
2023-02-24T12:53:25.183Z,97346.75
2023-02-24T12:55:51.319Z,97341.66
2023-02-24T12:58:17.457Z,97351.28
2023-02-24T13:00:43.637Z,97345.16
2023-02-24T13:03:09.772Z,97337.16
2023-02-24T13:05:35.869Z,97328.34
2023-02-24T13:08:02.038Z,97323.81
2023-02-24T13:10:28.177Z,97332.03
2023-02-24T13:12:54.275Z,97327.53
2023-02-24T13:15:20.378Z,97321.34
2023-02-24T13:17:46.511Z,97324.03
2023-02-24T13:20:12.615Z,97316.00
2023-02-24T13:22:38.744Z,97315.22
2023-02-24T13:25:04.968Z,97311.72
2023-02-24T13:27:31.076Z,97308.25
2023-02-24T13:29:57.764Z,97308.25
2023-02-24T13:32:24.193Z,97305.81
2023-02-24T13:34:50.359Z,97300.47
2023-02-24T13:37:16.462Z,97297.59
2023-02-24T13:39:42.589Z,97290.41
2023-02-24T13:42:08.711Z,97277.28
2023-02-24T13:44:34.838Z,97280.78
2023-02-24T13:47:01.448Z,97277.28
2023-02-24T13:49:27.573Z,97274.00
2023-02-24T13:51:53.683Z,97260.47
2023-02-24T13:54:19.810Z,97266.84
2023-02-24T13:56:45.933Z,97265.00
2023-02-24T13:59:12.036Z,97266.00
2023-02-24T14:01:38.182Z,97257.19
2023-02-24T14:04:04.528Z,97251.88
2023-02-24T14:06:30.661Z,97259.06
2023-02-24T14:08:56.784Z,97254.53
2023-02-24T14:11:23.171Z,97248.59
2023-02-24T14:13:49.449Z,97252.91
2023-02-24T14:16:15.612Z,97249.44
2023-02-24T14:18:41.773Z,97255.81
2023-02-24T14:21:07.876Z,97245.13
2023-02-24T14:23:34.035Z,97242.72
2023-02-24T14:26:00.471Z,97232.03
2023-02-24T14:28:26.613Z,97245.38
2023-02-24T14:30:52.850Z,97244.53
2023-02-24T14:33:19.005Z,97243.75
2023-02-24T14:35:45.103Z,97236.78
2023-02-24T14:38:11.226Z,97240.25
2023-02-24T14:40:37.321Z,97247.22
2023-02-24T14:43:03.428Z,97243.94
2023-02-24T14:45:29.558Z,97232.47
2023-02-24T14:47:55.680Z,97237.22
2023-02-24T14:50:21.796Z,97230.88
2023-02-24T14:52:47.934Z,97238.06
2023-02-24T14:55:14.066Z,97228.19
2023-02-24T14:57:40.190Z,97237.00
2023-02-24T15:00:06.383Z,97230.88
2023-02-24T15:02:32.600Z,97232.94
2023-02-24T15:04:58.717Z,97235.38
2023-02-24T15:07:24.910Z,97231.88
2023-02-24T15:09:51.032Z,97226.78
2023-02-24T15:12:17.126Z,97220.66
2023-02-24T15:14:43.300Z,97228.66
2023-02-24T15:17:09.561Z,97216.34
2023-02-24T15:19:35.676Z,97215.31
2023-02-24T15:22:01.869Z,97202.22
2023-02-24T15:24:27.999Z,97198.50
2023-02-24T15:26:54.118Z,97201.41
2023-02-24T15:29:20.243Z,97196.88
2023-02-24T15:31:46.393Z,97187.22
2023-02-24T15:34:12.590Z,97182.72
2023-02-24T15:36:38.716Z,97193.41
2023-02-24T15:39:04.874Z,97187.47
2023-02-24T15:41:31.024Z,97177.63
2023-02-24T15:43:57.199Z,97169.63
2023-02-24T15:46:23.683Z,97168.81
2023-02-24T15:48:49.976Z,97174.16
2023-02-24T15:51:16.269Z,97166.94
2023-02-24T15:53:42.374Z,97163.69
2023-02-24T15:56:08.490Z,97162.66
2023-02-24T15:58:34.616Z,97148.50
2023-02-24T16:01:00.791Z,97160.00
2023-02-24T16:03:26.941Z,97145.84
2023-02-24T16:05:53.075Z,97143.16
2023-02-24T16:08:19.274Z,97131.47
2023-02-24T16:10:45.394Z,97134.16
2023-02-24T16:13:11.654Z,97129.84
2023-02-24T16:15:37.901Z,97120.22
2023-02-24T16:18:04.081Z,97117.56
2023-02-24T16:20:30.303Z,97120.44
2023-02-24T16:22:56.436Z,97108.97
2023-02-24T16:25:22.555Z,97113.28
2023-02-24T16:27:48.843Z,97112.44
2023-02-24T16:30:15.135Z,97114.56
2023-02-24T16:32:41.427Z,97115.13
2023-02-24T16:35:07.660Z,97114.31
2023-02-24T16:37:33.878Z,97116.38
2023-02-24T16:40:00.041Z,97114.78
2023-02-24T16:42:26.276Z,97115.34
2023-02-24T16:44:52.446Z,97124.38
2023-02-24T16:47:18.717Z,97127.63
2023-02-24T16:49:44.869Z,97121.50
2023-02-24T16:52:11.065Z,97116.97
2023-02-24T16:54:37.242Z,97128.69
2023-02-24T16:57:03.888Z,97126.84
2023-02-24T16:59:30.065Z,97119.88
2023-02-24T17:01:56.201Z,97129.72
2023-02-24T17:04:22.419Z,97126.25
2023-02-24T17:06:48.658Z,97126.47
2023-02-24T17:09:14.774Z,97134.47
2023-02-24T17:11:41.022Z,97125.91
2023-02-24T17:14:07.203Z,97140.03
2023-02-24T17:16:33.491Z,97138.16
2023-02-24T17:18:59.811Z,97141.06
2023-02-24T17:21:25.988Z,97135.50
2023-02-24T17:23:52.142Z,97146.16
2023-02-24T17:26:18.285Z,97144.31
2023-02-24T17:28:44.465Z,97146.16
2023-02-24T17:31:10.804Z,97137.13
2023-02-24T17:33:37.177Z,97143.28
2023-02-24T17:36:03.291Z,97138.97
2023-02-24T17:38:29.416Z,97141.66
2023-02-24T17:40:55.636Z,97141.66
2023-02-24T17:43:21.907Z,97141.66
2023-02-24T17:45:48.275Z,97145.38
2023-02-24T17:48:14.517Z,97152.31
2023-02-24T17:50:40.669Z,97156.84
2023-02-24T17:53:06.781Z,97153.38
2023-02-24T17:55:33.097Z,97149.88
2023-02-24T17:57:59.304Z,97148.25
2023-02-24T18:00:25.508Z,97151.50
2023-02-24T18:02:51.790Z,97146.16
2023-02-24T18:05:17.958Z,97141.91
2023-02-24T18:07:44.134Z,97139.22
2023-02-24T18:10:10.306Z,97142.69
2023-02-24T18:12:36.556Z,97140.84
2023-02-24T18:15:08.531Z,97140.03
2023-02-24T18:17:35.375Z,97149.88
2023-02-24T18:20:01.683Z,97155.22
2023-02-24T18:22:27.896Z,97144.56
2023-02-24T18:24:54.111Z,97153.56
2023-02-24T18:27:20.220Z,97156.25
2023-02-24T18:29:46.394Z,97158.09
2023-02-24T18:32:12.787Z,97161.38
2023-02-24T18:34:39.066Z,97161.56
2023-02-24T18:37:05.158Z,97156.03
2023-02-24T18:39:31.445Z,97159.50
2023-02-24T18:41:59.519Z,97171.78
2023-02-24T18:44:25.811Z,97161.38
2023-02-24T18:46:51.942Z,97162.16
2023-02-24T18:49:18.094Z,97162.16
2023-02-24T18:51:44.258Z,97170.75
2023-02-24T18:54:10.525Z,97167.28
2023-02-24T18:56:36.665Z,97166.44
2023-02-24T18:59:02.803Z,97177.09
2023-02-24T19:01:29.137Z,97169.94
2023-02-24T19:03:55.381Z,97177.69
2023-02-24T19:06:22.032Z,97194.53
2023-02-24T19:08:48.820Z,97179.34
2023-02-24T19:11:14.941Z,97188.97
2023-02-24T19:13:41.085Z,97185.47
2023-02-24T19:16:07.412Z,97186.28
2023-02-24T19:18:33.623Z,97197.56
2023-02-24T19:20:59.846Z,97195.69
2023-02-24T19:23:26.037Z,97192.22
2023-02-24T19:25:52.167Z,97215.16
2023-02-24T19:28:18.283Z,97210.66
2023-02-24T19:30:44.518Z,97202.41
2023-02-24T19:33:10.767Z,97202.41
2023-02-24T19:35:37.010Z,97191.75
2023-02-24T19:38:03.144Z,97201.41
2023-02-24T19:40:29.297Z,97200.34
2023-02-24T19:42:55.462Z,97197.69
2023-02-24T19:45:21.634Z,97199.31
2023-02-24T19:47:47.753Z,97203.81
2023-02-24T19:50:13.975Z,97215.31
2023-02-24T19:52:40.176Z,97221.69
2023-02-24T19:55:06.408Z,97226.78
2023-02-24T19:57:32.604Z,97231.31
2023-02-24T19:59:58.800Z,97224.13
2023-02-24T20:02:25.012Z,97222.28
2023-02-24T20:04:51.239Z,97220.41
2023-02-24T20:07:17.635Z,97222.28
2023-02-24T20:09:43.842Z,97229.22
2023-02-24T20:12:09.961Z,97239.88
2023-02-24T20:14:36.168Z,97247.66
2023-02-24T20:17:02.475Z,97245.81
2023-02-24T20:19:28.683Z,97253.00
2023-02-24T20:21:54.895Z,97241.28
2023-02-24T20:24:21.082Z,97242.13
2023-02-24T20:26:47.396Z,97248.25
2023-02-24T20:29:13.638Z,97254.19
2023-02-24T20:31:39.847Z,97248.25
2023-02-24T20:34:06.063Z,97248.03
2023-02-24T20:36:32.238Z,97240.59
2023-02-24T20:38:58.355Z,97245.94
2023-02-24T20:41:24.476Z,97252.91
2023-02-24T20:43:50.684Z,97248.41
2023-02-24T20:46:16.918Z,97258.25
2023-02-24T20:48:43.098Z,97258.84
2023-02-24T20:51:09.228Z,97261.50
2023-02-24T20:53:41.984Z,97266.84
2023-02-24T20:56:14.698Z,97265.00
2023-02-24T20:58:42.133Z,97262.31
2023-02-24T21:01:08.300Z,97264.19
2023-02-24T21:03:35.075Z,97267.44
2023-02-24T21:06:09.490Z,97267.44
2023-02-24T21:08:36.191Z,97266.38
2023-02-24T21:11:02.307Z,97259.44
2023-02-24T21:13:28.563Z,97262.91
2023-02-24T21:15:54.994Z,97256.78
2023-02-24T21:18:21.250Z,97262.91
2023-02-24T21:20:47.481Z,97255.72
2023-02-24T21:23:16.572Z,97261.06
2023-02-24T21:25:42.735Z,97254.91
2023-02-24T21:28:08.939Z,97254.91
2023-02-24T21:30:35.208Z,97254.09
2023-02-24T21:33:01.516Z,97244.00
2023-02-24T21:35:27.709Z,97245.66
2023-02-24T21:37:54.021Z,97247.50
2023-02-24T21:40:20.178Z,97256.31
2023-02-24T21:42:46.316Z,97256.31
2023-02-24T21:45:12.507Z,97261.66
2023-02-24T21:47:38.600Z,97258.97
2023-02-24T21:50:04.715Z,97268.59
2023-02-24T21:52:30.830Z,97262.25
2023-02-24T21:54:56.939Z,97260.59
2023-02-24T21:57:23.067Z,97283.56
2023-02-24T21:59:49.244Z,97281.94
2023-02-24T22:02:15.395Z,97272.91
2023-02-24T22:04:41.520Z,97272.91
2023-02-24T22:07:08.545Z,97280.06
2023-02-24T22:09:34.710Z,97278.25
2023-02-24T22:12:00.856Z,97276.59
2023-02-24T22:14:27.041Z,97276.59
2023-02-24T22:16:53.164Z,97278.25
2023-02-24T22:19:19.355Z,97271.25
2023-02-24T22:21:45.516Z,97277.41
2023-02-24T22:24:11.680Z,97281.94
2023-02-24T22:26:37.820Z,97277.41
2023-02-24T22:29:04.027Z,97276.38
2023-02-24T22:31:30.211Z,97279.84
2023-02-24T22:33:56.450Z,97280.91
2023-02-24T22:36:23.068Z,97273.72
2023-02-24T22:38:49.446Z,97271.06
2023-02-24T22:41:15.709Z,97264.91
2023-02-24T22:43:42.225Z,97273.72
2023-02-24T22:46:08.408Z,97288.91
2023-02-24T22:48:34.536Z,97295.06
2023-02-24T22:51:00.751Z,97282.53
2023-02-24T22:53:27.053Z,97302.84
2023-02-24T22:55:53.255Z,97295.88
2023-02-24T22:58:19.461Z,97291.34
2023-02-24T23:00:45.795Z,97295.88
2023-02-24T23:03:12.118Z,97300.19
2023-02-24T23:05:38.284Z,97296.66
2023-02-24T23:08:04.585Z,97309.00
2023-02-24T23:10:30.902Z,97305.50
2023-02-24T23:12:57.129Z,97306.31
2023-02-24T23:15:23.326Z,97307.13
2023-02-24T23:17:49.541Z,97312.47
2023-02-24T23:20:15.833Z,97312.47
2023-02-24T23:22:42.045Z,97331.94
2023-02-24T23:25:08.248Z,97331.13
2023-02-24T23:27:34.458Z,97327.66
2023-02-24T23:30:00.676Z,97333.00
2023-02-24T23:32:26.922Z,97333.00
2023-02-24T23:34:53.129Z,97333.00
2023-02-24T23:37:19.307Z,97328.47
2023-02-24T23:39:45.522Z,97334.84
2023-02-24T23:42:11.710Z,97340.19
2023-02-24T23:44:37.851Z,97339.13
2023-02-24T23:47:04.082Z,97339.94
2023-02-24T23:49:46.165Z,97332.19
2023-02-24T23:52:13.866Z,97339.13
2023-02-24T23:54:40.130Z,97346.34
2023-02-24T23:57:06.259Z,97341.00
2023-02-24T23:59:32.395Z,97347.94
